Latest Weather Observations for Cape Flattery

IDQ60801

Issued at 8:35 am EST Saturday 1 November 2014 (issued every 30 minutes, with the page automatically refreshed every 10 minutes)

About weather observations | Map of weather stations | Latest weather observations for QLD | Other Formats
Station Details ID: 031213 Name: CAPE FLATTERY Lat: -14.97 Lon: 145.31 Height: 18.5 m
Data from the previous 72 hours. | See also: Recent months at Cape Flattery
Date/Time
EST
Temp
°C
App
Temp
°C
Dew
Point
Rel
Hum
%
Delta-T
°C
Wind Press
QNH
hPa
Press
MSL
hPa
Rain
since 9 am
mm
Dir
 
Spd
km/h
Gust
km/h
Spd
kts
Gust
kts
01/08:30am 28.0 27.4 21.3 67 4.5 SE 26 32 14 17 1014.6 1014.5 0.0
01/08:00am 27.2 26.5 21.0 69 4.1 ESE 26 33 14 18 1014.4 1014.3 0.0
01/07:30am 27.1 27.0 21.4 71 3.8 ESE 24 32 13 17 1014.2 1014.1 0.0
01/07:00am 26.1 26.8 21.5 76 3.1 ESE 20 30 11 16 1013.8 1013.7 0.0
01/06:30am 25.5 25.8 20.7 75 3.1 ESE 20 28 11 15 1013.4 1013.3 0.0
01/06:00am 24.7 25.2 20.8 79 2.6 ESE 19 28 10 15 1013.0 1012.9 0.0
01/05:30am 24.7 25.3 21.0 80 2.4 ESE 19 26 10 14 1012.7 1012.6 0.0
01/05:00am 24.7 25.3 21.0 80 2.4 ESE 19 26 10 14 1012.3 1012.2 0.0
01/04:30am 24.6 25.7 21.3 82 2.2 ESE 17 26 9 14 1012.1 1012.0 0.0
01/04:00am 24.5 25.2 21.2 82 2.2 ESE 19 28 10 15 1011.8 1011.7 0.0
01/03:30am 24.5 24.8 20.8 80 2.4 ESE 20 28 11 15 1011.5 1011.4 0.0
01/03:00am 24.7 25.2 20.8 79 2.6 ESE 19 30 10 16 1011.4 1011.3 0.0
01/02:30am 25.1 25.2 21.2 79 2.6 SE 22 30 12 16 1011.5 1011.4 0.0
01/02:00am 24.9 24.7 21.2 80 2.4 ESE 24 32 13 17 1011.8 1011.7 0.0
01/01:30am 25.2 24.5 21.1 78 2.7 ESE 26 39 14 21 1011.9 1011.8 0.0
01/01:00am 25.1 25.0 21.4 80 2.4 SE 24 30 13 16 1012.2 1012.1 0.0
01/12:30am 25.1 24.4 21.0 78 2.7 SE 26 37 14 20 1012.6 1012.5 0.0
01/12:00am 25.0 25.2 21.3 80 2.4 SE 22 32 12 17 1013.0 1012.9 0.0
 
Date/Time
EST
Temp
°C
App
Temp
°C
Dew
Point
Rel
Hum
%
Delta-T
°C
Wind Press
QNH
hPa
Press
MSL
hPa
Rain
since 9 am
mm
Dir
 
Spd
km/h
Gust
km/h
Spd
kts
Gust
kts
31/11:30pm 25.2 25.2 21.7 81 2.3 SE 24 32 13 17 1013.4 1013.3 0.0
31/11:00pm 25.0 25.6 21.3 80 2.4 SE 20 30 11 16 1013.6 1013.5 0.0
31/10:30pm 25.0 24.8 21.3 80 2.4 SE 24 33 13 18 1013.8 1013.7 0.0
31/10:00pm 25.2 25.1 21.5 80 2.5 SE 24 32 13 17 1013.9 1013.8 0.0
31/09:30pm 25.0 25.5 21.1 79 2.6 SE 20 30 11 16 1013.7 1013.6 0.0
31/09:00pm 25.0 25.2 21.3 80 2.4 SE 22 32 12 17 1013.4 1013.3 0.0
31/08:30pm 25.1 25.0 20.8 77 2.8 SE 22 33 12 18 1013.1 1013.0 0.0
31/08:00pm 25.2 25.2 20.9 77 2.8 SE 22 32 12 17 1012.8 1012.7 0.0
31/07:30pm 25.3 24.9 21.0 77 2.8 SSE 24 33 13 18 1012.5 1012.4 0.0
31/07:00pm 25.3 24.8 20.8 76 3.0 SSE 24 32 13 17 1012.0 1011.9 0.0
31/06:30pm 25.3 24.8 20.8 76 3.0 SSE 24 30 13 16 1011.8 1011.7 0.0
31/06:00pm 25.8 25.2 20.6 73 3.4 SSE 24 32 13 17 1011.7 1011.6 0.0
31/05:30pm 26.3 24.6 19.9 68 4.2 SSE 28 33 15 18 1011.4 1011.3 0.0
31/05:00pm 26.9 25.4 20.3 67 4.3 SSE 28 37 15 20 1010.9 1010.8 0.0
31/04:30pm 27.5 26.3 20.1 64 4.8 SSE 26 35 14 19 1010.9 1010.8 0.0
31/04:00pm 27.7 26.2 19.5 61 5.3 SSE 26 35 14 19 1011.0 1010.9 0.0
31/03:30pm 27.9 25.9 19.1 58 5.7 SSE 28 33 15 18 1011.1 1011.0 0.0
31/03:00pm 28.1 26.5 19.1 58 5.8 SE 26 35 14 19 1011.2 1011.1 0.0
31/02:30pm 29.0 27.6 19.6 57 6.1 SE 26 33 14 18 1011.3 1011.2 0.0
31/02:00pm 28.5 27.0 18.6 55 6.4 SE 24 35 13 19 1011.5 1011.4 0.0
31/01:30pm 28.5 26.8 18.9 56 6.2 SE 26 35 14 19 1011.6 1011.5 0.0
31/01:00pm 28.6 26.8 19.5 58 5.9 SE 28 35 15 19 1012.1 1012.0 0.0
31/12:30pm 28.7 27.3 19.6 58 5.9 SE 26 33 14 18 1012.6 1012.5 0.0
31/12:00pm 29.5 28.7 20.1 57 6.2 SE 24 35 13 19 1012.9 1012.8 0.0
31/11:30am 29.9 29.2 20.2 56 6.4 SE 24 35 13 19 1013.3 1013.2 0.0
31/11:00am 28.3 26.9 18.7 56 6.2 SE 24 32 13 17 1013.7 1013.6 0.0
31/10:30am 28.3 27.0 19.0 57 6.0 SE 24 30 13 16 1014.0 1013.9 0.0
31/10:00am 28.0 26.8 19.2 58 5.7 SE 24 32 13 17 1014.3 1014.2 0.0
31/09:30am 27.6 27.0 18.9 59 5.6 SE 20 28 11 15 1014.5 1014.4 0.0
31/09:00am 27.5 27.0 19.0 59 5.5 ESE 20 26 11 14 1014.5 1014.4 0.0
31/08:30am 27.3 26.9 19.4 62 5.1 SE 20 28 11 15 1014.3 1014.2 0.0
31/08:00am 26.6 26.1 20.0 67 4.3 ESE 22 32 12 17 1014.1 1014.0 0.0
31/07:30am 26.3 26.1 19.7 67 4.3 ESE 20 30 11 16 1013.8 1013.7 0.0
31/07:00am 25.4 24.9 19.1 68 4.0 ESE 20 30 11 16 1013.4 1013.3 0.0
31/06:30am 24.7 24.4 19.1 71 3.6 ESE 19 26 10 14 1012.9 1012.8 0.0
31/06:00am 24.2 24.3 19.1 73 3.3 ESE 17 24 9 13 1012.5 1012.4 0.0
31/05:30am 24.1 23.8 19.2 74 3.1 ESE 19 26 10 14 1011.9 1011.8 0.0
31/05:00am 24.2 23.6 18.8 72 3.4 ESE 20 28 11 15 1011.8 1011.7 0.0
31/04:30am 24.6 24.7 20.3 77 2.8 ESE 20 28 11 15 1011.6 1011.5 0.0
31/04:00am 24.2 23.2 19.7 76 2.9 SE 24 32 13 17 1011.6 1011.5 0.0
31/03:30am 24.3 23.3 19.6 75 3.0 SE 24 35 13 19 1011.5 1011.4 0.0
31/03:00am 24.3 24.2 20.0 77 2.8 SE 20 30 11 16 1011.8 1011.7 0.0
31/02:30am 24.2 24.6 19.9 77 2.8 SE 17 24 9 13 1011.7 1011.6 0.0
31/02:00am 24.0 24.3 19.5 76 2.9 ESE 17 28 9 15 1011.9 1011.8 0.0
31/01:30am 24.1 24.3 19.4 75 3.0 ESE 17 24 9 13 1012.2 1012.1 0.0
31/01:00am 24.5 24.1 19.3 73 3.3 ESE 20 28 11 15 1012.5 1012.4 0.0
31/12:30am 24.4 24.1 19.5 74 3.1 SE 20 28 11 15 1012.8 1012.7 0.0
31/12:00am 24.3 23.8 18.7 71 3.6 ESE 19 32 10 17 1013.1 1013.0 0.0
 
Date/Time
EST
Temp
°C
App
Temp
°C
Dew
Point
Rel
Hum
%
Delta-T
°C
Wind Press
QNH
hPa
Press
MSL
hPa
Rain
since 9 am
mm
Dir
 
Spd
km/h
Gust
km/h
Spd
kts
Gust
kts
30/11:30pm 24.5 23.9 18.9 71 3.6 ESE 20 28 11 15 1013.3 1013.2 0.0
30/11:00pm 24.3 23.9 18.9 72 3.4 ESE 19 28 10 15 1013.4 1013.3 0.0
30/10:30pm 24.6 24.4 19.4 73 3.3 ESE 19 26 10 14 1013.5 1013.4 0.0
30/10:00pm 24.4 24.5 19.2 73 3.3 ESE 17 22 9 12 1013.5 1013.4 0.0
30/09:30pm 24.5 24.2 19.1 72 3.4 ESE 19 26 10 14 1013.2 1013.1 0.0
30/09:00pm 24.5 24.0 19.1 72 3.4 ESE 20 30 11 16 1012.8 1012.7 0.0
30/08:30pm 24.8 23.5 19.0 70 3.7 ESE 24 33 13 18 1012.4 1012.3 0.0
30/08:00pm 24.8 24.5 19.6 73 3.4 SE 20 28 11 15 1012.2 1012.1 0.0
30/07:30pm 24.8 24.2 19.8 74 3.2 SE 22 30 12 16 1012.1 1012.0 0.0
30/07:00pm 24.8 24.6 19.8 74 3.2 SE 20 28 11 15 1011.9 1011.8 0.0
30/06:30pm 25.0 24.8 19.8 73 3.4 SE 20 28 11 15 1011.8 1011.7 0.0
30/06:00pm 25.4 24.7 19.5 70 3.8 SE 22 32 12 17 1011.5 1011.4 0.0
30/05:30pm 26.3 25.3 19.7 67 4.3 SE 24 35 13 19 1011.3 1011.2 0.0
30/05:00pm 26.4 24.1 19.3 65 4.6 SE 30 37 16 20 1011.2 1011.1 0.0
30/04:30pm 26.9 25.0 19.3 63 4.9 SSE 28 37 15 20 1011.1 1011.0 0.0
30/04:00pm 28.1 26.3 19.6 60 5.5 SE 28 37 15 20 1010.9 1010.8 0.0
30/03:30pm 28.5 26.8 19.7 59 5.7 SE 28 37 15 20 1011.0 1010.9 0.0
30/03:00pm 28.4 26.0 19.1 57 6.0 SE 30 41 16 22 1011.3 1011.2 0.0
30/02:30pm 28.2 25.4 19.1 57 5.9 SE 32 37 17 20 1011.5 1011.4 0.0
30/02:00pm 28.9 26.3 19.8 58 6.0 SE 33 41 18 22 1011.7 1011.6 0.0
30/01:30pm 29.0 26.8 19.6 57 6.1 SE 30 41 16 22 1012.0 1011.9 0.0
30/01:00pm 28.3 26.2 19.0 57 6.0 SE 28 37 15 20 1012.5 1012.4 0.0
30/12:30pm 28.5 25.9 18.6 55 6.4 SE 30 37 16 20 1013.0 1012.9 0.0
30/12:00pm 28.7 25.5 18.2 53 6.7 SE 32 39 17 21 1013.7 1013.6 0.0
30/11:30am 28.6 26.1 18.1 53 6.7 SE 28 37 15 20 1014.0 1013.9 0.0
30/11:00am 28.4 26.4 18.2 54 6.5 SE 26 37 14 20 1014.2 1014.1 0.0
30/10:30am 28.5 26.9 18.3 54 6.5 ESE 24 35 13 19 1014.2 1014.1 0.0
30/10:00am 29.0 28.2 18.4 52 6.8 ESE 20 30 11 16 1014.2 1014.1 0.0
30/09:30am 28.0 27.3 18.7 57 6.0 ESE 20 30 11 16 1014.4 1014.3 0.0
30/09:00am 27.7 26.4 18.1 56 6.1 SE 22 30 12 16 1014.6 1014.5 0.0
30/08:30am 27.5 26.9 18.8 59 5.6 ESE 20 28 11 15 1014.4 1014.3 0.0
30/08:00am 26.0 25.3 18.2 62 4.9 ESE 19 24 10 13 1014.1 1014.0 0.0
30/07:30am 25.8 25.6 18.5 64 4.6 ESE 17 22 9 12 1013.9 1013.8 0.0
30/07:00am 24.5 26.1 19.1 72 3.4 ESE 9 13 5 7 1013.4 1013.3 0.0
30/06:30am 23.6 24.6 18.7 74 3.1 ESE 11 17 6 9 1013.1 1013.0 0.0
30/06:00am 22.5 23.4 18.5 78 2.5 E 11 15 6 8 1012.7 1012.6 0.0
30/05:30am 22.4 23.3 18.4 78 2.5 E 11 15 6 8 1012.3 1012.2 0.0
30/05:00am 22.9 23.9 18.7 77 2.7 E 11 15 6 8 1012.0 1011.9 0.0
30/04:30am 22.9 24.1 19.1 79 2.4 E 11 15 6 8 1011.9 1011.8 0.0
30/04:00am 22.5 23.5 18.7 79 2.4 E 11 15 6 8 1011.8 1011.7 0.0
30/03:30am 22.7 24.0 18.5 77 2.6 E 9 13 5 7 1011.9 1011.8 0.0
30/03:00am 23.3 24.8 19.7 80 2.3 ESE 11 17 6 9 1011.9 1011.8 0.0
30/02:30am 22.5 24.1 19.1 81 2.2 ESE 9 13 5 7 1012.1 1012.0 0.0
30/02:00am 22.6 24.0 18.6 78 2.5 ESE 9 11 5 6 1012.2 1012.1 0.0
30/01:30am 22.9 23.9 18.7 77 2.7 ESE 11 15 6 8 1012.5 1012.4 0.0
30/01:00am 22.6 23.6 18.6 78 2.5 ESE 11 13 6 7 1013.0 1012.9 0.0
30/12:30am 22.8 24.2 18.6 77 2.6 ESE 9 15 5 8 1013.1 1013.0 0.0
30/12:00am 23.2 24.1 18.3 74 3.1 ESE 11 15 6 8 1013.4 1013.3 0.0
 
Date/Time
EST
Temp
°C
App
Temp
°C
Dew
Point
Rel
Hum
%
Delta-T
°C
Wind Press
QNH
hPa
Press
MSL
hPa
Rain
since 9 am
mm
Dir
 
Spd
km/h
Gust
km/h
Spd
kts
Gust
kts
29/11:30pm 22.9 23.9 18.7 77 2.7 ESE 11 15 6 8 1013.6 1013.5 0.0
29/11:00pm 23.1 23.9 18.2 74 3.1 E 11 17 6 9 1013.7 1013.6 0.0
29/10:30pm 23.7 24.2 18.4 72 3.3 ESE 13 19 7 10 1014.0 1013.9 0.0
29/10:00pm 23.8 24.3 18.4 72 3.4 ESE 13 19 7 10 1014.2 1014.1 0.0
29/09:30pm 24.2 24.9 18.8 72 3.4 ESE 13 17 7 9 1013.9 1013.8 0.0
29/09:00pm 24.4 25.3 19.2 73 3.3 ESE 13 20 7 11 1013.7 1013.6 0.0
29/08:30pm 24.1 24.9 19.0 73 3.2 ESE 13 17 7 9 1013.6 1013.5 0.0
29/08:00pm 24.0 24.6 18.6 72 3.4 ESE 13 19 7 10 1013.3 1013.2 0.0
29/07:30pm 24.2 25.0 19.1 73 3.3 ESE 13 17 7 9 1013.1 1013.0 0.0
29/07:00pm 24.5 24.9 19.1 72 3.4 SE 15 20 8 11 1012.8 1012.7 0.0
29/06:30pm 24.9 24.9 19.0 69 3.8 SE 17 22 9 12 1012.8 1012.7 0.0
29/06:00pm 25.6 25.2 19.0 67 4.2 SE 19 28 10 15 1012.6 1012.5 0.0
29/05:30pm 26.4 25.6 18.5 62 5.0 ESE 20 26 11 14 1012.4 1012.3 0.0
29/05:00pm 26.4 26.0 18.8 63 4.9 SE 19 26 10 14 1012.2 1012.1 0.0
29/04:30pm 27.0 26.3 18.6 60 5.4 SE 20 30 11 16 1012.1 1012.0 0.0
29/04:00pm 27.1 25.8 18.1 58 5.7 SE 22 30 12 16 1012.0 1011.9 0.0
29/03:30pm 27.4 26.3 17.8 55 6.1 ESE 20 32 11 17 1012.0 1011.9 0.0
29/03:00pm 27.6 25.9 18.0 55 6.1 SE 24 33 13 18 1012.2 1012.1 0.0
29/02:30pm 28.3 27.4 18.1 54 6.5 SE 20 28 11 15 1012.4 1012.3 0.0
29/02:00pm 28.7 27.8 18.2 53 6.7 SE 20 33 11 18 1012.6 1012.5 0.0
29/01:30pm 28.7 27.3 17.9 52 6.9 SE 22 33 12 18 1012.9 1012.8 0.0
29/01:00pm 28.3 26.8 17.8 53 6.7 SE 22 33 12 18 1013.3 1013.2 0.0
29/12:30pm 28.5 27.6 18.3 54 6.5 ESE 20 28 11 15 1013.5 1013.4 0.0
29/12:00pm 28.0 26.7 17.2 52 6.8 SSE 20 30 11 16 1013.9 1013.8 0.0
29/11:30am 27.8 26.7 17.3 52 6.6 SE 19 33 10 18 1014.0 1013.9 0.0
29/11:00am 28.7 28.5 18.5 54 6.5 SE 17 28 9 15 1014.2 1014.1 0.0
29/10:30am 27.5 26.4 17.4 54 6.4 SE 19 28 10 15 1014.5 1014.4 0.0
29/10:00am 27.6 27.1 17.7 54 6.3 SE 17 24 9 13 1014.5 1014.4 0.0
29/09:30am 27.6 26.7 17.7 54 6.3 SSE 19 26 10 14 1014.7 1014.6 0.0
29/09:00am 27.3 26.8 17.8 56 6.0 SSE 17 24 9 13 1014.7 1014.6 0.0

Other Formats:

Comma delimited format used in spreadsheet applications
http://www.bom.gov.au/fwo/IDQ60801/IDQ60801.94188.axf

JavaScript Object Notation format (JSON) in row-major order
http://www.bom.gov.au/fwo/IDQ60801/IDQ60801.94188.json